Time;durP1;ratioP1;P1;durP2;ratioP2;P2;SDS_P1;SDS_P2;PMS_P1;PMS_P2;Temp;Humidity;BMP_temperature;BMP_pressure;BME280_temperature;BME280_humidity;BME280_pressure;Samples;Min_cycle;Max_cycle;Signal;HPM_P1;HPM_P2
2021/09/02 00:01:22;;;;;;;14.40;3.88;;;;;17.10;100637.00;;;;5068700;28;20055;-78
2021/09/02 00:03:48;;;;;;;14.57;4.30;;;;;17.10;100627.00;;;;5068586;28;20120;-78
2021/09/02 00:06:15;;;;;;;21.77;4.70;;;;;17.20;100639.00;;;;5068496;28;20035;-78
2021/09/02 00:08:41;;;;;;;30.92;5.45;;;;;17.20;100621.00;;;;5068273;28;20028;-78
2021/09/02 00:11:08;;;;;;;31.55;4.47;;;;;17.20;100635.00;;;;5066508;28;20501;-78
2021/09/02 00:13:35;;;;;;;32.60;5.13;;;;;17.20;100646.00;;;;5055873;28;20404;-76
2021/09/02 00:16:01;;;;;;;33.95;4.55;;;;;17.10;100620.00;;;;5058987;28;20066;-78
2021/09/02 00:18:29;;;;;;;23.75;5.45;;;;;17.00;100619.00;;;;5057532;28;20366;-78
2021/09/02 00:20:56;;;;;;;22.65;5.38;;;;;17.00;100626.00;;;;5056404;28;20389;-78
2021/09/02 00:23:23;;;;;;;31.45;5.07;;;;;17.00;100623.00;;;;5058179;28;20048;-78
2021/09/02 00:25:50;;;;;;;27.50;5.07;;;;;16.90;100627.00;;;;5056028;28;20510;-77
2021/09/02 00:28:16;;;;;;;24.98;5.07;;;;;16.90;100624.00;;;;5048265;28;20471;-78
2021/09/02 00:30:43;;;;;;;34.58;4.78;;;;;17.00;100626.00;;;;5048287;28;20060;-79
2021/09/02 00:33:19;;;;;;;20.42;4.35;;;;;17.00;100636.00;;;;5047865;28;20049;-77
2021/09/02 00:35:47;;;;;;;23.38;4.68;;;;;16.90;100607.00;;;;5047640;28;20048;-77
2021/09/02 00:38:14;;;;;;;21.65;4.20;;;;;17.00;100615.00;;;;5046641;28;20233;-77
2021/09/02 00:40:40;;;;;;;23.02;4.63;;;;;17.10;100614.00;;;;5047846;28;20060;-78
2021/09/02 00:43:07;;;;;;;18.63;4.28;;;;;17.20;100603.00;;;;5047975;28;20492;-78
2021/09/02 00:45:33;;;;;;;9.57;3.80;;;;;17.30;100615.00;;;;5046677;28;20112;-78
2021/09/02 00:48:00;;;;;;;15.20;3.28;;;;;17.40;100618.00;;;;5047928;28;20483;-78
2021/09/02 00:50:32;;;;;;;11.05;3.35;;;;;17.40;100583.00;;;;5046240;28;20040;-76
2021/09/02 00:53:00;;;;;;;10.95;4.25;;;;;17.50;100612.00;;;;5047429;28;20033;-77
2021/09/02 00:55:27;;;;;;;18.02;3.60;;;;;17.50;100599.00;;;;5048092;28;20534;-77
2021/09/02 00:57:54;;;;;;;10.25;3.80;;;;;17.40;100604.00;;;;5047627;28;20499;-77
2021/09/02 01:00:20;;;;;;;12.25;3.42;;;;;17.30;100595.00;;;;5047351;28;20767;-77
2021/09/02 01:02:47;;;;;;;9.50;3.47;;;;;17.20;100601.00;;;;5047498;28;20476;-78
2021/09/02 01:05:17;;;;;;;10.27;3.55;;;;;17.20;100617.00;;;;5047237;28;20385;-78
2021/09/02 01:07:44;;;;;;;10.02;3.85;;;;;17.10;100607.00;;;;5047485;28;20381;-78
2021/09/02 01:10:12;;;;;;;12.50;3.25;;;;;17.10;100620.00;;;;5047479;28;20025;-78
2021/09/02 01:12:40;;;;;;;8.90;3.78;;;;;17.00;100608.00;;;;5047836;28;20652;-77
2021/09/02 01:15:09;;;;;;;13.30;3.88;;;;;17.00;100612.00;;;;5046970;28;20488;-78
2021/09/02 01:17:36;;;;;;;12.05;4.05;;;;;17.00;100602.00;;;;5047539;28;20025;-79
2021/09/02 01:20:23;;;;;;;14.23;3.67;;;;;17.10;100607.00;;;;5047704;28;20025;-78
2021/09/02 01:22:52;;;;;;;12.60;3.97;;;;;17.00;100612.00;;;;5046005;28;20040;-77
2021/09/02 01:25:21;;;;;;;10.30;3.40;;;;;17.00;100608.00;;;;5047479;28;20695;-78
2021/09/02 01:27:51;;;;;;;14.50;3.53;;;;;16.90;100593.00;;;;5047282;28;20040;-78
2021/09/02 01:30:18;;;;;;;11.00;3.83;;;;;16.80;100613.00;;;;5047546;28;20037;-78
2021/09/02 01:32:48;;;;;;;12.07;3.95;;;;;16.70;100604.00;;;;5047202;28;20029;-79
2021/09/02 01:35:16;;;;;;;14.85;4.50;;;;;16.80;100623.00;;;;5047164;28;20376;-79
2021/09/02 01:37:44;;;;;;;11.38;4.53;;;;;16.80;100617.00;;;;5045525;28;20025;-78
2021/09/02 01:40:15;;;;;;;11.93;4.13;;;;;16.70;100610.00;;;;5046950;28;20036;-77
2021/09/02 01:42:42;;;;;;;14.75;4.60;;;;;16.60;100614.00;;;;5047134;28;20064;-79
2021/09/02 01:45:09;;;;;;;17.98;4.53;;;;;16.50;100611.00;;;;5047242;28;20064;-78
2021/09/02 01:47:36;;;;;;;21.95;4.35;;;;;16.50;100608.00;;;;5046790;28;20107;-78
2021/09/02 01:50:11;;;;;;;14.68;4.05;;;;;16.50;100629.00;;;;5046507;28;20024;-78
2021/09/02 01:52:38;;;;;;;15.43;4.30;;;;;16.60;100629.00;;;;5047236;28;20021;-79
2021/09/02 01:55:07;;;;;;;9.68;4.22;;;;;16.60;100610.00;;;;5046545;28;20068;-76
2021/09/02 01:57:35;;;;;;;8.07;4.25;;;;;16.50;100598.00;;;;5046618;28;20079;-78
2021/09/02 02:00:03;;;;;;;9.15;4.47;;;;;16.40;100597.00;;;;5046659;28;20038;-77
2021/09/02 02:02:29;;;;;;;8.88;4.20;;;;;16.50;100602.00;;;;5046406;28;20064;-78
2021/09/02 02:04:56;;;;;;;16.13;4.68;;;;;16.40;100608.00;;;;5046646;28;20029;-78
2021/09/02 02:07:22;;;;;;;10.48;4.30;;;;;16.30;100608.00;;;;5046814;28;20039;-78
2021/09/02 02:09:49;;;;;;;12.18;5.00;;;;;16.30;100592.00;;;;5046589;28;20075;-78
2021/09/02 02:12:15;;;;;;;11.48;5.57;;;;;16.40;100586.00;;;;5046584;28;20024;-79
2021/09/02 02:14:42;;;;;;;12.05;5.68;;;;;16.40;100572.00;;;;5046431;28;20082;-78
2021/09/02 02:17:09;;;;;;;11.50;5.68;;;;;16.50;100605.00;;;;5046472;28;20136;-78
2021/09/02 02:19:35;;;;;;;10.02;5.80;;;;;16.70;100579.00;;;;5046621;28;20024;-78
2021/09/02 02:22:02;;;;;;;12.50;6.32;;;;;16.80;100575.00;;;;5046571;28;20060;-78
2021/09/02 02:24:28;;;;;;;12.50;6.07;;;;;16.80;100604.00;;;;5047071;28;20032;-78
2021/09/02 02:26:55;;;;;;;13.10;6.40;;;;;16.70;100582.00;;;;5045420;28;20025;-78
2021/09/02 02:29:22;;;;;;;17.35;6.35;;;;;16.70;100582.00;;;;5046556;28;20036;-79
2021/09/02 02:31:48;;;;;;;12.20;5.95;;;;;16.60;100606.00;;;;5045998;28;20040;-77
2021/09/02 02:34:16;;;;;;;16.90;6.13;;;;;16.60;100599.00;;;;5048457;28;20033;-78
2021/09/02 02:36:43;;;;;;;14.38;7.10;;;;;16.50;100603.00;;;;5050498;28;20404;-78
2021/09/02 02:39:10;;;;;;;18.38;6.43;;;;;16.60;100586.00;;;;5050807;28;20734;-78
2021/09/02 02:41:36;;;;;;;14.45;7.25;;;;;16.50;100615.00;;;;5050372;28;20031;-77
2021/09/02 02:44:03;;;;;;;20.58;7.13;;;;;16.50;100595.00;;;;5049966;28;20029;-78
2021/09/02 02:46:30;;;;;;;19.70;6.40;;;;;16.50;100580.00;;;;5050452;28;20487;-77
2021/09/02 02:48:56;;;;;;;15.35;6.80;;;;;16.40;100580.00;;;;5050592;28;20050;-78
2021/09/02 02:51:23;;;;;;;15.73;6.43;;;;;16.30;100589.00;;;;5050300;28;20025;-77
2021/09/02 02:53:50;;;;;;;15.18;7.25;;;;;16.20;100594.00;;;;5049946;28;20065;-77
2021/09/02 02:56:17;;;;;;;14.95;7.10;;;;;16.20;100570.00;;;;5049688;28;20075;-77
2021/09/02 02:58:44;;;;;;;13.10;6.60;;;;;16.10;100579.00;;;;5049787;28;20147;-78
2021/09/02 03:01:11;;;;;;;9.73;6.57;;;;;16.20;100568.00;;;;5050084;28;20032;-78
2021/09/02 03:03:38;;;;;;;11.30;6.60;;;;;16.20;100587.00;;;;5050246;28;20033;-78
2021/09/02 03:06:05;;;;;;;15.77;7.65;;;;;16.30;100575.00;;;;5049826;28;20403;-79
2021/09/02 03:08:32;;;;;;;9.50;6.60;;;;;16.30;100572.00;;;;5050050;28;20108;-79
2021/09/02 03:10:58;;;;;;;15.13;7.35;;;;;16.30;100569.00;;;;5050353;28;20029;-77
2021/09/02 03:13:25;;;;;;;14.65;8.05;;;;;16.30;100586.00;;;;5049600;28;20032;-77
2021/09/02 03:15:51;;;;;;;15.23;7.35;;;;;16.30;100603.00;;;;5050439;28;20067;-76
2021/09/02 03:18:18;;;;;;;14.40;7.68;;;;;16.20;100581.00;;;;5049440;28;20117;-78
2021/09/02 03:20:45;;;;;;;19.17;7.53;;;;;16.10;100589.00;;;;5048426;28;20029;-78
2021/09/02 03:23:12;;;;;;;12.85;8.20;;;;;16.10;100583.00;;;;5049753;28;20609;-78
2021/09/02 03:25:39;;;;;;;11.40;7.53;;;;;16.20;100573.00;;;;5049411;28;20495;-79
2021/09/02 03:28:05;;;;;;;18.55;8.13;;;;;16.10;100586.00;;;;5049172;28;20118;-78
2021/09/02 03:30:32;;;;;;;18.48;9.20;;;;;16.10;100581.00;;;;5048273;28;20083;-78
2021/09/02 03:32:59;;;;;;;14.70;7.97;;;;;16.10;100577.00;;;;5049407;28;20495;-78
2021/09/02 03:35:25;;;;;;;14.48;8.48;;;;;16.10;100583.00;;;;5049360;28;20553;-78
2021/09/02 03:37:52;;;;;;;14.38;8.20;;;;;16.00;100561.00;;;;5050007;28;20028;-78
2021/09/02 03:40:18;;;;;;;13.45;8.40;;;;;16.00;100552.00;;;;5049143;28;20087;-79
2021/09/02 03:42:45;;;;;;;21.30;9.43;;;;;15.90;100598.00;;;;5049615;28;20492;-77
2021/09/02 03:45:12;;;;;;;15.70;9.38;;;;;15.90;100610.00;;;;5048345;28;20032;-78
2021/09/02 03:47:38;;;;;;;17.73;9.27;;;;;16.00;100575.00;;;;5048951;28;20033;-77
2021/09/02 03:50:05;;;;;;;16.38;9.82;;;;;16.00;100596.00;;;;5047808;28;20039;-78
2021/09/02 03:52:32;;;;;;;18.50;10.43;;;;;16.00;100576.00;;;;5048802;28;20036;-79
2021/09/02 03:54:59;;;;;;;16.10;10.55;;;;;16.10;100539.00;;;;5048790;28;20149;-78
2021/09/02 03:57:25;;;;;;;11.25;9.43;;;;;16.00;100555.00;;;;5049179;28;20028;-78
2021/09/02 03:59:52;;;;;;;17.70;10.07;;;;;16.00;100561.00;;;;5049816;28;20028;-78
2021/09/02 04:02:18;;;;;;;18.63;9.50;;;;;15.90;100570.00;;;;5048996;28;20468;-79
2021/09/02 04:04:45;;;;;;;18.33;9.27;;;;;16.00;100557.00;;;;5048478;28;20025;-77
2021/09/02 04:07:11;;;;;;;19.77;10.57;;;;;16.00;100572.00;;;;5049336;28;20096;-79
2021/09/02 04:09:38;;;;;;;18.23;9.98;;;;;16.10;100565.00;;;;5048564;28;20043;-76
2021/09/02 04:12:05;;;;;;;17.38;10.18;;;;;16.10;100567.00;;;;5049024;28;20028;-78
2021/09/02 04:14:31;;;;;;;16.73;9.98;;;;;16.10;100586.00;;;;5049189;28;20061;-79
2021/09/02 04:16:58;;;;;;;19.63;10.10;;;;;16.10;100580.00;;;;5047462;28;20488;-78
2021/09/02 04:19:24;;;;;;;14.75;9.77;;;;;16.00;100577.00;;;;5048783;28;20029;-78
2021/09/02 04:21:51;;;;;;;18.67;10.63;;;;;15.90;100594.00;;;;5047250;28;20025;-78
2021/09/02 04:24:18;;;;;;;17.30;11.13;;;;;16.00;100587.00;;;;5048300;28;20040;-78
2021/09/02 04:26:45;;;;;;;17.27;10.25;;;;;15.90;100600.00;;;;5048131;28;20499;-77
2021/09/02 04:29:11;;;;;;;17.05;10.02;;;;;15.90;100579.00;;;;5048648;28;20025;-76
2021/09/02 04:31:38;;;;;;;19.88;11.02;;;;;15.90;100593.00;;;;5048399;28;20040;-77
2021/09/02 04:34:05;;;;;;;15.90;11.27;;;;;15.80;100590.00;;;;5048230;28;20025;-77
2021/09/02 04:36:31;;;;;;;23.88;11.80;;;;;15.80;100612.00;;;;5048584;28;20033;-78
2021/09/02 04:38:58;;;;;;;16.00;10.90;;;;;15.80;100606.00;;;;5048216;28;20527;-77
2021/09/02 04:41:24;;;;;;;15.77;11.43;;;;;15.70;100593.00;;;;5048298;28;20043;-77
2021/09/02 04:43:51;;;;;;;17.70;11.75;;;;;15.60;100583.00;;;;5048055;28;20025;-77
2021/09/02 04:46:19;;;;;;;19.92;11.23;;;;;15.70;100599.00;;;;5048220;28;20044;-77
2021/09/02 04:48:46;;;;;;;18.35;12.27;;;;;15.60;100573.00;;;;5047929;28;20070;-77
2021/09/02 04:51:12;;;;;;;21.17;11.48;;;;;15.60;100605.00;;;;5047662;28;20025;-77
2021/09/02 04:53:39;;;;;;;17.63;11.18;;;;;15.60;100587.00;;;;5047954;28;20073;-76
2021/09/02 04:56:05;;;;;;;20.40;11.63;;;;;15.50;100596.00;;;;5048014;28;20139;-77
2021/09/02 04:58:32;;;;;;;19.42;11.55;;;;;15.40;100590.00;;;;5047778;28;20048;-77
2021/09/02 05:00:58;;;;;;;19.52;11.32;;;;;15.30;100591.00;;;;5046450;28;20511;-78
2021/09/02 05:03:25;;;;;;;15.45;12.25;;;;;15.20;100581.00;;;;5048314;28;20083;-78
2021/09/02 05:05:51;;;;;;;20.80;10.98;;;;;15.20;100586.00;;;;5047205;28;20033;-77
2021/09/02 05:08:18;;;;;;;16.38;10.88;;;;;15.10;100576.00;;;;5047950;28;20400;-77
2021/09/02 05:10:44;;;;;;;17.30;10.98;;;;;15.10;100596.00;;;;5047854;28;20108;-77
2021/09/02 05:13:11;;;;;;;16.10;11.30;;;;;15.10;100580.00;;;;5047866;28;20064;-77
2021/09/02 05:15:37;;;;;;;14.57;11.23;;;;;15.00;100591.00;;;;5048324;28;20464;-76
2021/09/02 05:18:04;;;;;;;16.60;12.18;;;;;15.00;100591.00;;;;5046242;28;20048;-77
2021/09/02 05:20:31;;;;;;;23.75;12.38;;;;;15.00;100598.00;;;;5048058;28;20033;-77
2021/09/02 05:22:58;;;;;;;20.85;12.90;;;;;15.00;100588.00;;;;5047544;28;20041;-77
2021/09/02 05:25:25;;;;;;;18.90;14.02;;;;;14.80;100594.00;;;;5047693;28;20051;-77
2021/09/02 05:27:52;;;;;;;25.80;14.15;;;;;14.80;100577.00;;;;5047538;28;20078;-78
2021/09/02 05:30:18;;;;;;;18.83;12.70;;;;;14.90;100579.00;;;;5047488;28;20036;-78
2021/09/02 05:32:46;;;;;;;16.70;12.55;;;;;14.90;100576.00;;;;5047102;28;20029;-78
2021/09/02 05:35:13;;;;;;;19.83;12.60;;;;;14.90;100590.00;;;;5047681;28;20057;-79
2021/09/02 05:37:40;;;;;;;21.73;13.07;;;;;14.80;100579.00;;;;5047607;28;20037;-78
2021/09/02 05:40:07;;;;;;;22.35;14.10;;;;;14.80;100558.00;;;;5046857;28;20040;-78
2021/09/02 05:42:34;;;;;;;17.85;11.98;;;;;14.80;100567.00;;;;5047055;28;20033;-78
2021/09/02 05:45:01;;;;;;;20.40;13.05;;;;;14.80;100535.00;;;;5046642;28;20037;-77
2021/09/02 05:47:27;;;;;;;21.70;13.18;;;;;14.80;100557.00;;;;5046841;28;20039;-76
2021/09/02 05:49:54;;;;;;;17.80;13.45;;;;;14.80;100560.00;;;;5047547;28;20416;-77
2021/09/02 05:52:20;;;;;;;24.20;14.40;;;;;14.90;100541.00;;;;5047458;28;20031;-78
2021/09/02 05:54:53;;;;;;;21.05;15.05;;;;;14.90;100565.00;;;;5046899;28;20057;-76
2021/09/02 05:57:22;;;;;;;26.75;13.90;;;;;14.90;100534.00;;;;5047329;28;20028;-77
2021/09/02 05:59:49;;;;;;;22.08;13.57;;;;;14.90;100541.00;;;;5046913;28;20136;-77
2021/09/02 06:02:16;;;;;;;23.05;13.90;;;;;14.90;100560.00;;;;5046681;28;20036;-77
2021/09/02 06:04:43;;;;;;;23.30;13.88;;;;;14.90;100523.00;;;;5047242;28;20436;-77
2021/09/02 06:07:09;;;;;;;18.30;12.65;;;;;14.90;100551.00;;;;5046404;28;20549;-78
2021/09/02 06:09:36;;;;;;;20.90;14.05;;;;;14.90;100532.00;;;;5046074;28;20029;-76
2021/09/02 06:12:02;;;;;;;20.90;14.00;;;;;14.90;100534.00;;;;5046860;28;20563;-78
2021/09/02 06:14:29;;;;;;;19.00;13.63;;;;;14.90;100522.00;;;;5046740;28;20033;-76
2021/09/02 06:16:56;;;;;;;20.50;13.70;;;;;14.90;100515.00;;;;5047201;28;20032;-78
2021/09/02 06:19:22;;;;;;;22.50;14.15;;;;;14.90;100524.00;;;;5046665;28;21257;-77
2021/09/02 06:21:49;;;;;;;17.98;13.63;;;;;14.90;100532.00;;;;5046734;28;20025;-78
2021/09/02 06:24:15;;;;;;;22.20;13.07;;;;;14.90;100519.00;;;;5046664;28;20494;-78
2021/09/02 06:26:42;;;;;;;23.13;13.05;;;;;14.80;100512.00;;;;5046373;28;20792;-77
2021/09/02 06:29:08;;;;;;;19.77;13.85;;;;;14.70;100527.00;;;;5046223;28;20522;-77
2021/09/02 06:31:35;;;;;;;20.80;13.82;;;;;14.70;100519.00;;;;5045198;28;20199;-79
2021/09/02 06:34:01;;;;;;;21.55;14.00;;;;;14.70;100528.00;;;;5046955;28;20032;-78
2021/09/02 06:36:28;;;;;;;19.40;13.68;;;;;14.60;100492.00;;;;5045014;28;20039;-78
2021/09/02 06:38:54;;;;;;;20.00;12.30;;;;;14.60;100498.00;;;;5046612;28;20112;-79
2021/09/02 06:41:21;;;;;;;22.00;13.20;;;;;14.50;100520.00;;;;5046775;28;20033;-78
2021/09/02 06:43:47;;;;;;;23.95;13.43;;;;;14.40;100520.00;;;;5046122;28;20036;-78
2021/09/02 06:46:14;;;;;;;21.42;14.45;;;;;14.40;100511.00;;;;5046690;28;20025;-79
2021/09/02 06:48:41;;;;;;;20.55;15.25;;;;;14.40;100488.00;;;;5047353;28;20085;-80
2021/09/02 06:51:07;;;;;;;19.88;13.35;;;;;14.30;100490.00;;;;5047679;28;20041;-79
2021/09/02 06:53:34;;;;;;;20.80;14.00;;;;;14.30;100492.00;;;;5046804;28;20110;-78
2021/09/02 06:56:00;;;;;;;22.63;14.57;;;;;14.30;100511.00;;;;5046041;28;20031;-80
2021/09/02 06:58:27;;;;;;;20.60;13.55;;;;;14.30;100512.00;;;;5046152;28;20503;-80
2021/09/02 07:00:53;;;;;;;21.20;13.52;;;;;14.40;100503.00;;;;5046680;28;20112;-79
2021/09/02 07:03:20;;;;;;;24.73;14.10;;;;;14.40;100508.00;;;;5046986;28;20029;-79
2021/09/02 07:05:46;;;;;;;24.42;13.48;;;;;14.30;100486.00;;;;5046680;28;20029;-79
2021/09/02 07:08:13;;;;;;;21.10;13.90;;;;;14.30;100497.00;;;;5046155;28;20043;-78
2021/09/02 07:10:39;;;;;;;21.92;14.90;;;;;14.30;100496.00;;;;5046162;28;20025;-76
2021/09/02 07:13:06;;;;;;;16.98;13.48;;;;;14.20;100489.00;;;;5045957;28;20091;-78
2021/09/02 07:15:33;;;;;;;25.17;14.65;;;;;14.20;100494.00;;;;5045996;28;20500;-79
2021/09/02 07:18:00;;;;;;;23.45;14.57;;;;;14.10;100498.00;;;;5046079;28;20021;-77
2021/09/02 07:20:27;;;;;;;19.38;13.88;;;;;14.10;100495.00;;;;5046375;28;20033;-77
2021/09/02 07:22:53;;;;;;;19.08;13.23;;;;;14.10;100506.00;;;;5050203;28;20098;-77
2021/09/02 07:25:20;;;;;;;21.15;13.93;;;;;14.10;100491.00;;;;5049523;28;20132;-78
2021/09/02 07:27:46;;;;;;;21.00;14.02;;;;;14.00;100486.00;;;;5049835;28;20032;-78
2021/09/02 07:30:13;;;;;;;24.17;14.15;;;;;14.00;100508.00;;;;5048963;28;20043;-77
2021/09/02 07:32:40;;;;;;;24.42;13.55;;;;;14.00;100503.00;;;;5047459;28;20647;-78
2021/09/02 07:35:07;;;;;;;23.70;14.60;;;;;14.10;100477.00;;;;5049134;28;20078;-77
2021/09/02 07:37:33;;;;;;;17.92;13.93;;;;;14.20;100500.00;;;;5049558;28;20052;-78
2021/09/02 07:40:00;;;;;;;22.95;13.75;;;;;14.20;100508.00;;;;5049254;28;20455;-77
2021/09/02 07:42:26;;;;;;;27.83;14.32;;;;;14.20;100500.00;;;;5048563;28;21089;-78
2021/09/02 07:44:54;;;;;;;20.50;14.57;;;;;14.30;100496.00;;;;5048763;28;20025;-79
2021/09/02 07:47:20;;;;;;;19.60;13.95;;;;;14.30;100495.00;;;;5049467;28;20029;-77
2021/09/02 07:49:47;;;;;;;20.88;13.70;;;;;14.40;100506.00;;;;5049608;28;20032;-78
2021/09/02 07:52:13;;;;;;;19.30;14.63;;;;;14.40;100490.00;;;;5049172;28;20039;-78
2021/09/02 07:54:40;;;;;;;24.92;13.82;;;;;14.50;100510.00;;;;5048603;28;20507;-78
2021/09/02 07:57:06;;;;;;;18.65;14.63;;;;;14.50;100522.00;;;;5048735;28;20039;-78
2021/09/02 07:59:33;;;;;;;20.08;13.48;;;;;14.50;100514.00;;;;5048838;28;20031;-78
2021/09/02 08:01:59;;;;;;;23.70;14.15;;;;;14.40;100494.00;;;;5048603;28;20102;-78
2021/09/02 08:04:26;;;;;;;22.30;14.65;;;;;14.40;100519.00;;;;5048682;28;20047;-79
2021/09/02 08:06:53;;;;;;;21.02;14.00;;;;;14.50;100536.00;;;;5049536;28;20171;-77
2021/09/02 08:09:19;;;;;;;23.08;14.13;;;;;14.40;100524.00;;;;5048671;28;20404;-79
2021/09/02 08:11:46;;;;;;;19.88;14.70;;;;;14.40;100513.00;;;;5049453;28;20047;-78
2021/09/02 08:14:12;;;;;;;19.38;14.30;;;;;14.30;100526.00;;;;5049067;28;20120;-78
2021/09/02 08:16:39;;;;;;;25.42;14.43;;;;;14.30;100504.00;;;;5047280;28;20110;-78
2021/09/02 08:19:05;;;;;;;23.33;14.88;;;;;14.30;100517.00;;;;5048720;28;20132;-79
2021/09/02 08:21:32;;;;;;;23.38;14.45;;;;;14.30;100528.00;;;;5048926;28;20037;-79
2021/09/02 08:23:59;;;;;;;22.08;15.13;;;;;14.20;100506.00;;;;5048251;28;20396;-78
2021/09/02 08:26:27;;;;;;;22.23;14.20;;;;;14.20;100529.00;;;;5048454;28;20033;-78
2021/09/02 08:28:54;;;;;;;20.58;14.32;;;;;14.10;100530.00;;;;5048495;28;20115;-77
2021/09/02 08:31:20;;;;;;;23.55;14.23;;;;;14.10;100507.00;;;;5047702;28;20033;-79
2021/09/02 08:33:47;;;;;;;20.52;14.20;;;;;14.20;100512.00;;;;5047300;28;20025;-78
2021/09/02 08:36:14;;;;;;;24.20;15.02;;;;;14.10;100527.00;;;;5048145;28;20048;-77
2021/09/02 08:38:47;;;;;;;21.88;14.57;;;;;14.10;100507.00;;;;5048453;28;20055;-79
2021/09/02 08:41:15;;;;;;;21.42;14.48;;;;;14.20;100541.00;;;;5047739;28;20037;-77
2021/09/02 08:43:42;;;;;;;18.67;15.27;;;;;14.20;100524.00;;;;5047915;28;20032;-79
2021/09/02 08:46:09;;;;;;;20.73;15.55;;;;;14.20;100543.00;;;;5048120;28;20041;-78
2021/09/02 08:48:39;;;;;;;18.38;13.23;;;;;14.20;100561.00;;;;5047502;28;20090;-78
2021/09/02 08:51:06;;;;;;;19.07;14.23;;;;;14.20;100562.00;;;;5048217;28;20557;-78
2021/09/02 08:53:33;;;;;;;18.10;14.85;;;;;14.20;100576.00;;;;5047824;28;20053;-81
2021/09/02 08:55:59;;;;;;;20.10;14.68;;;;;14.30;100552.00;;;;5048808;28;20040;-80
2021/09/02 08:58:26;;;;;;;20.55;13.68;;;;;14.30;100576.00;;;;5048408;28;20032;-77
2021/09/02 09:00:53;;;;;;;22.65;13.93;;;;;14.30;100586.00;;;;5046785;28;20502;-78
2021/09/02 09:03:20;;;;;;;22.42;14.30;;;;;14.40;100605.00;;;;5047983;28;20024;-77
2021/09/02 09:05:57;;;;;;;19.83;13.52;;;;;14.50;100590.00;;;;5047628;28;20124;-79
2021/09/02 09:08:43;;;;;;;17.35;13.20;;;;;14.50;100577.00;;;;5047375;28;20092;-77
2021/09/02 09:11:30;;;;;;;18.05;13.45;;;;;14.60;100597.00;;;;5047950;28;20029;-77
2021/09/02 09:14:07;;;;;;;18.08;13.50;;;;;14.70;100609.00;;;;5047666;28;20025;-77
2021/09/02 09:16:55;;;;;;;22.27;13.93;;;;;14.70;100599.00;;;;5047937;28;20032;-77
2021/09/02 09:19:50;;;;;;;20.63;13.82;;;;;14.70;100624.00;;;;5047415;28;20043;-77
2021/09/02 09:22:18;;;;;;;19.40;12.88;;;;;14.80;100603.00;;;;5047603;28;20029;-81
2021/09/02 09:24:56;;;;;;;20.77;12.30;;;;;14.90;100622.00;;;;5047689;28;20037;-79
2021/09/02 09:27:47;;;;;;;18.08;12.73;;;;;14.90;100605.00;;;;5047603;28;20587;-77
2021/09/02 09:30:22;;;;;;;19.48;11.50;;;;;14.90;100607.00;;;;5047059;28;20618;-78
2021/09/02 09:32:57;;;;;;;18.25;13.15;;;;;14.90;100605.00;;;;5047333;28;20029;-80
2021/09/02 09:35:28;;;;;;;21.70;12.82;;;;;14.90;100614.00;;;;5044617;28;20439;-79
2021/09/02 09:38:16;;;;;;;16.75;12.27;;;;;15.00;100644.00;;;;5045723;28;20031;-79
2021/09/02 09:40:45;;;;;;;23.85;12.75;;;;;15.00;100623.00;;;;5045205;28;20078;-79
2021/09/02 09:43:14;;;;;;;24.80;12.90;;;;;15.00;100646.00;;;;5046388;28;20039;-79
2021/09/02 09:45:40;;;;;;;17.75;10.88;;;;;15.10;100643.00;;;;5047805;28;20484;-77
2021/09/02 09:48:34;;;;;;;17.25;11.57;;;;;15.10;100654.00;;;;5046854;28;20451;-80
2021/09/02 09:51:10;;;;;;;22.42;11.40;;;;;15.10;100663.00;;;;5044160;28;20040;-79
2021/09/02 09:53:37;;;;;;;33.60;12.90;;;;;15.00;100674.00;;;;5046132;28;20079;-79
2021/09/02 09:56:05;;;;;;;21.50;10.90;;;;;15.00;100664.00;;;;5046285;28;20060;-78
2021/09/02 09:58:32;;;;;;;26.13;12.63;;;;;15.00;100673.00;;;;5046692;28;20025;-80
2021/09/02 10:01:00;;;;;;;38.53;13.20;;;;;15.00;100670.00;;;;5046828;28;20045;-81
2021/09/02 10:03:30;;;;;;;41.47;11.50;;;;;15.10;100670.00;;;;5046900;28;20032;-81
2021/09/02 10:06:04;;;;;;;30.38;12.13;;;;;15.10;100673.00;;;;5046169;28;20119;-79
2021/09/02 10:08:34;;;;;;;50.05;12.20;;;;;15.10;100683.00;;;;5047322;28;20100;-78
2021/09/02 10:11:02;;;;;;;55.17;12.10;;;;;15.10;100674.00;;;;5046710;28;20025;-79
2021/09/02 10:13:29;;;;;;;45.70;11.98;;;;;15.10;100686.00;;;;5046745;28;20037;-80
2021/09/02 10:15:57;;;;;;;37.10;11.90;;;;;15.20;100680.00;;;;5047283;28;20167;-80
2021/09/02 10:18:24;;;;;;;30.92;11.73;;;;;15.20;100690.00;;;;5046196;28;20449;-79
2021/09/02 10:20:53;;;;;;;35.45;12.05;;;;;15.20;100688.00;;;;5044603;28;20116;-79
2021/09/02 10:23:25;;;;;;;23.25;11.57;;;;;15.40;100670.00;;;;5046455;28;20021;-78
2021/09/02 10:25:53;;;;;;;38.05;12.00;;;;;15.60;100670.00;;;;5046596;28;20561;-78
2021/09/02 10:28:25;;;;;;;57.42;12.95;;;;;15.70;100671.00;;;;5046864;28;20464;-78
2021/09/02 10:30:58;;;;;;;71.55;14.05;;;;;15.80;100660.00;;;;5046305;28;20518;-78
2021/09/02 10:33:41;;;;;;;38.65;11.60;;;;;15.90;100679.00;;;;5046686;28;20496;-77
2021/09/02 10:36:10;;;;;;;21.55;11.18;;;;;16.00;100674.00;;;;5046469;28;20044;-77
2021/09/02 10:38:50;;;;;;;19.02;11.02;;;;;16.20;100666.00;;;;5046614;28;20033;-78
2021/09/02 10:41:36;;;;;;;21.02;10.98;;;;;16.70;100672.00;;;;5046156;28;20082;-77
2021/09/02 10:44:04;;;;;;;20.50;11.07;;;;;16.90;100675.00;;;;5046283;28;20029;-78
2021/09/02 10:46:49;;;;;;;29.83;11.32;;;;;17.10;100658.00;;;;5046246;28;20033;-76
2021/09/02 10:49:29;;;;;;;23.63;10.85;;;;;17.30;100677.00;;;;5046288;28;20107;-75
2021/09/02 10:52:23;;;;;;;20.52;10.73;;;;;17.40;100686.00;;;;5045406;28;20411;-77
2021/09/02 10:54:50;;;;;;;31.95;10.85;;;;;17.60;100673.00;;;;5047525;28;20076;-78
2021/09/02 10:57:16;;;;;;;21.88;10.07;;;;;17.90;100688.00;;;;5050227;28;20476;-79
2021/09/02 10:59:53;;;;;;;28.55;10.77;;;;;18.20;100676.00;;;;5050258;28;20025;-78
2021/09/02 11:02:22;;;;;;;41.72;10.63;;;;;18.40;100674.00;;;;5049880;28;20032;-77
2021/09/02 11:05:05;;;;;;;42.90;11.23;;;;;18.80;100663.00;;;;5049801;28;20038;-78
2021/09/02 11:07:43;;;;;;;43.58;10.55;;;;;19.00;100666.00;;;;5050103;28;20412;-78
2021/09/02 11:10:12;;;;;;;26.88;10.63;;;;;19.10;100680.00;;;;5049951;28;20033;-79
2021/09/02 11:12:39;;;;;;;29.85;11.07;;;;;19.50;100663.00;;;;5049615;28;20021;-78
2021/09/02 11:15:07;;;;;;;32.42;10.60;;;;;19.70;100680.00;;;;5049926;28;20028;-78
2021/09/02 11:17:34;;;;;;;26.95;11.23;;;;;19.80;100680.00;;;;5049668;28;20071;-77
2021/09/02 11:20:00;;;;;;;37.83;10.57;;;;;19.70;100665.00;;;;5050162;28;20048;-76
2021/09/02 11:22:27;;;;;;;30.13;11.38;;;;;20.20;100677.00;;;;5049927;28;20061;-76
2021/09/02 11:24:54;;;;;;;22.70;10.35;;;;;21.30;100638.00;;;;5050478;28;20576;-77
2021/09/02 11:27:34;;;;;;;27.75;10.38;;;;;21.00;100664.00;;;;5050466;28;20606;-77
2021/09/02 11:30:25;;;;;;;35.92;11.02;;;;;21.30;100640.00;;;;5049913;28;20061;-78
2021/09/02 11:32:55;;;;;;;28.33;10.60;;;;;22.00;100608.00;;;;5049414;28;20029;-77
2021/09/02 11:35:22;;;;;;;23.63;10.35;;;;;22.80;100600.00;;;;5049771;28;20032;-76
2021/09/02 11:37:48;;;;;;;31.60;11.05;;;;;22.00;100629.00;;;;5049898;28;20491;-78
2021/09/02 11:40:36;;;;;;;25.70;10.13;;;;;21.70;100661.00;;;;5049616;28;20377;-76
2021/09/02 11:43:04;;;;;;;36.92;14.35;;;;;21.50;100647.00;;;;5049676;28;20075;-78
2021/09/02 11:45:34;;;;;;;25.05;9.85;;;;;21.40;100636.00;;;;5049134;28;20029;-78
2021/09/02 11:48:05;;;;;;;28.67;11.30;;;;;21.50;100673.00;;;;5049317;28;20033;-78
2021/09/02 11:50:33;;;;;;;27.45;10.23;;;;;21.30;100653.00;;;;5049299;28;20039;-77
2021/09/02 11:53:00;;;;;;;45.22;12.63;;;;;21.40;100651.00;;;;5048717;28;20055;-76
2021/09/02 11:55:32;;;;;;;28.55;10.18;;;;;21.50;100674.00;;;;5048865;28;20405;-78
2021/09/02 11:58:04;;;;;;;26.73;10.77;;;;;21.70;100653.00;;;;5049078;28;20082;-76
2021/09/02 12:00:33;;;;;;;26.50;10.95;;;;;21.90;100643.00;;;;5049038;28;20652;-77